Time;durP1;ratioP1;P1;durP2;ratioP2;P2;SDS_P1;SDS_P2;PMS_P1;PMS_P2;Temp;Humidity;BMP_temperature;BMP_pressure;BME280_temperature;BME280_humidity;BME280_pressure;Samples;Min_cycle;Max_cycle;Signal;HPM_P1;HPM_P2
2022/12/09 00:01:27;;;;;;;30.90;22.42;;;4.50;99.90;;;;;;5039599;28;20516;-40
2022/12/09 00:03:54;;;;;;;31.65;21.67;;;4.50;99.90;;;;;;5039250;28;20033;-40
2022/12/09 00:06:22;;;;;;;29.20;21.45;;;4.50;99.90;;;;;;5039965;28;20108;-40
2022/12/09 00:08:49;;;;;;;29.42;20.42;;;4.50;99.90;;;;;;5039043;28;20025;-38
2022/12/09 00:11:15;;;;;;;31.30;21.17;;;4.50;99.90;;;;;;5039935;28;20507;-40
2022/12/09 00:13:41;;;;;;;29.05;20.92;;;4.40;99.90;;;;;;5039544;28;20107;-40
2022/12/09 00:16:11;;;;;;;29.73;20.95;;;4.50;99.90;;;;;;5038676;28;20140;-38
2022/12/09 00:18:37;;;;;;;28.50;19.77;;;4.50;99.90;;;;;;5039178;28;20048;-40
2022/12/09 00:21:24;;;;;;;27.77;19.83;;;4.50;99.90;;;;;;5037759;28;20018;-40
2022/12/09 00:23:52;;;;;;;27.23;19.70;;;4.50;99.90;;;;;;5039622;28;20135;-39
2022/12/09 00:26:19;;;;;;;27.40;19.85;;;4.50;99.90;;;;;;5040080;28;20037;-40
2022/12/09 00:28:45;;;;;;;29.98;20.83;;;4.50;99.90;;;;;;5039041;28;20406;-40
2022/12/09 00:31:15;;;;;;;29.65;21.13;;;4.50;99.90;;;;;;5039609;28;20021;-39
2022/12/09 00:33:41;;;;;;;32.03;21.92;;;4.50;99.90;;;;;;5040026;28;20021;-40
2022/12/09 00:36:10;;;;;;;30.85;22.20;;;4.50;99.90;;;;;;5038813;28;20028;-40
2022/12/09 00:38:36;;;;;;;32.13;21.63;;;4.50;99.90;;;;;;5038675;28;20049;-40
2022/12/09 00:41:02;;;;;;;29.70;21.45;;;4.40;99.90;;;;;;5035271;28;20017;-39
2022/12/09 00:43:28;;;;;;;28.67;21.08;;;4.40;99.90;;;;;;5039130;28;20751;-38
2022/12/09 00:45:53;;;;;;;30.90;20.98;;;4.40;99.90;;;;;;5039225;28;20021;-40
2022/12/09 00:48:19;;;;;;;28.13;19.75;;;4.40;99.90;;;;;;5039454;28;20032;-40
2022/12/09 00:50:45;;;;;;;26.33;19.25;;;4.40;99.90;;;;;;5038580;28;20480;-40
2022/12/09 00:53:11;;;;;;;29.40;19.95;;;4.40;99.90;;;;;;5039523;28;20035;-39
2022/12/09 00:55:37;;;;;;;25.40;18.20;;;4.40;99.90;;;;;;5038711;28;20036;-38
2022/12/09 00:58:03;;;;;;;24.95;18.25;;;4.50;99.90;;;;;;5038762;28;20037;-40
2022/12/09 01:00:29;;;;;;;25.88;18.52;;;4.50;99.90;;;;;;5039200;28;20029;-38
2022/12/09 01:02:54;;;;;;;24.80;18.17;;;4.50;99.90;;;;;;5039522;28;20037;-38
2022/12/09 01:05:20;;;;;;;22.55;16.45;;;4.50;99.90;;;;;;5038299;28;20072;-39
2022/12/09 01:07:45;;;;;;;22.05;16.52;;;4.50;99.90;;;;;;5038869;28;20035;-39
2022/12/09 01:10:11;;;;;;;23.95;16.30;;;4.50;99.90;;;;;;5038711;28;20032;-40
2022/12/09 01:12:37;;;;;;;22.33;16.48;;;4.50;99.90;;;;;;5039413;28;20025;-37
2022/12/09 01:15:06;;;;;;;23.85;17.15;;;4.50;99.90;;;;;;5042795;28;20052;-40
2022/12/09 01:17:32;;;;;;;21.48;16.50;;;4.50;99.90;;;;;;5042015;28;20036;-40
2022/12/09 01:19:58;;;;;;;24.27;16.40;;;4.50;99.90;;;;;;5042672;28;20049;-39
2022/12/09 01:22:23;;;;;;;23.98;16.75;;;4.50;99.90;;;;;;5043194;28;20033;-40
2022/12/09 01:24:49;;;;;;;23.25;16.30;;;4.50;99.90;;;;;;5042488;28;20091;-39
2022/12/09 01:27:14;;;;;;;23.10;16.70;;;4.50;99.90;;;;;;5042680;28;20021;-38
2022/12/09 01:29:40;;;;;;;23.02;15.90;;;4.50;99.90;;;;;;5042333;28;20720;-39
2022/12/09 01:32:06;;;;;;;23.63;16.65;;;4.60;99.90;;;;;;5041313;28;20029;-40
2022/12/09 01:34:31;;;;;;;25.90;17.75;;;4.50;99.90;;;;;;5043067;28;20040;-38
2022/12/09 01:36:57;;;;;;;25.02;17.70;;;4.60;99.90;;;;;;5041991;28;20195;-37
2022/12/09 01:39:22;;;;;;;24.20;17.60;;;4.60;99.90;;;;;;5041701;28;20067;-38
2022/12/09 01:41:50;;;;;;;27.48;18.58;;;4.60;99.90;;;;;;5042372;28;20079;-38
2022/12/09 01:44:22;;;;;;;28.75;19.70;;;4.60;99.90;;;;;;5042669;28;20040;-39
2022/12/09 01:46:52;;;;;;;27.15;18.83;;;4.60;99.90;;;;;;5042575;28;20118;-39
2022/12/09 01:49:24;;;;;;;26.15;18.95;;;4.50;99.90;;;;;;5042213;28;20120;-38
2022/12/09 01:52:09;;;;;;;26.83;17.95;;;4.50;99.90;;;;;;5041889;28;20868;-39
2022/12/09 01:54:36;;;;;;;29.50;21.02;;;4.50;99.90;;;;;;5040730;28;20033;-39
2022/12/09 01:57:02;;;;;;;27.02;19.70;;;4.50;99.90;;;;;;5042455;28;20107;-40
2022/12/09 01:59:29;;;;;;;29.67;20.02;;;4.50;99.90;;;;;;5042405;28;20043;-38
2022/12/09 02:01:58;;;;;;;26.40;18.48;;;4.50;99.90;;;;;;5041751;28;20053;-39
2022/12/09 02:04:25;;;;;;;25.48;18.33;;;4.50;99.90;;;;;;5043117;28;20118;-39
2022/12/09 02:06:51;;;;;;;26.60;19.27;;;4.50;99.90;;;;;;5040724;28;20930;-39
2022/12/09 02:09:17;;;;;;;28.08;19.80;;;4.50;99.90;;;;;;5042258;28;20044;-37
2022/12/09 02:12:04;;;;;;;27.88;19.85;;;4.60;99.90;;;;;;5043192;28;20032;-39
2022/12/09 02:14:44;;;;;;;27.38;20.08;;;4.60;99.90;;;;;;5041062;28;20124;-41
2022/12/09 02:17:12;;;;;;;28.58;20.38;;;4.60;99.90;;;;;;5042593;28;20029;-39
2022/12/09 02:20:04;;;;;;;26.33;19.30;;;4.50;99.90;;;;;;5041890;28;20572;-42
2022/12/09 02:22:42;;;;;;;28.33;19.42;;;4.50;99.90;;;;;;5041470;28;20029;-40
2022/12/09 02:25:44;;;;;;;29.55;19.80;;;4.60;99.90;;;;;;5032601;28;20029;-39
2022/12/09 02:28:24;;;;;;;32.05;20.25;;;4.60;99.90;;;;;;5029089;28;20036;-39
2022/12/09 02:31:09;;;;;;;29.80;20.38;;;4.60;99.90;;;;;;5041563;28;20120;-39
2022/12/09 02:34:04;;;;;;;30.85;21.02;;;4.60;99.90;;;;;;5041804;28;20060;-39
2022/12/09 02:36:36;;;;;;;29.23;21.00;;;4.60;99.90;;;;;;5041593;28;20250;-39
2022/12/09 02:39:02;;;;;;;31.13;21.77;;;4.50;99.90;;;;;;5041071;28;20152;-40
2022/12/09 02:41:31;;;;;;;30.42;22.10;;;4.50;99.90;;;;;;5041583;28;20025;-40
2022/12/09 02:44:05;;;;;;;29.75;21.27;;;4.50;99.90;;;;;;5039905;28;20032;-39
2022/12/09 02:46:33;;;;;;;30.08;20.55;;;4.50;99.90;;;;;;5041430;28;20888;-43
2022/12/09 02:48:59;;;;;;;27.35;19.42;;;4.50;99.90;;;;;;5040656;28;20242;-42
2022/12/09 02:51:29;;;;;;;29.92;21.73;;;4.50;99.90;;;;;;5041647;28;20043;-40
2022/12/09 02:54:02;;;;;;;31.95;20.73;;;4.50;99.90;;;;;;5041228;28;20017;-38
2022/12/09 02:56:28;;;;;;;31.02;21.77;;;4.40;99.90;;;;;;5041229;28;20033;-39
2022/12/09 02:58:54;;;;;;;31.33;22.48;;;4.50;99.90;;;;;;5040701;28;20031;-39
2022/12/09 03:01:41;;;;;;;33.58;22.05;;;4.40;99.90;;;;;;5041268;28;20103;-36
2022/12/09 03:04:11;;;;;;;32.30;22.83;;;4.40;99.90;;;;;;5040133;28;20021;-39
2022/12/09 03:06:48;;;;;;;30.60;20.50;;;4.40;99.90;;;;;;5040926;28;20159;-39
2022/12/09 03:09:21;;;;;;;35.03;22.38;;;4.40;99.90;;;;;;5040568;28;20354;-38
2022/12/09 03:11:50;;;;;;;30.98;20.23;;;4.40;99.90;;;;;;5040512;28;20028;-39
2022/12/09 03:14:30;;;;;;;30.77;20.92;;;4.40;99.90;;;;;;5040360;28;20028;-40
2022/12/09 03:17:12;;;;;;;31.30;20.75;;;4.40;99.90;;;;;;5041071;28;20071;-40
2022/12/09 03:19:54;;;;;;;30.48;21.65;;;4.30;99.90;;;;;;5040705;28;20086;-40
2022/12/09 03:22:24;;;;;;;30.88;21.38;;;4.30;99.90;;;;;;5040882;28;20067;-41
2022/12/09 03:25:05;;;;;;;31.85;20.52;;;4.30;99.90;;;;;;5039916;28;20028;-39
2022/12/09 03:27:56;;;;;;;31.48;22.08;;;4.20;99.90;;;;;;5040844;28;20028;-40
2022/12/09 03:30:21;;;;;;;31.65;20.13;;;4.10;99.90;;;;;;5037448;28;20036;-40
2022/12/09 03:32:49;;;;;;;28.65;20.00;;;4.10;99.90;;;;;;5039717;28;20025;-39
2022/12/09 03:35:22;;;;;;;26.85;18.80;;;4.00;99.90;;;;;;5039917;28;20021;-39
2022/12/09 03:37:49;;;;;;;28.60;17.95;;;4.00;99.90;;;;;;5040092;28;21009;-39
2022/12/09 03:40:19;;;;;;;28.13;18.67;;;4.00;99.90;;;;;;5039600;28;20037;-39
2022/12/09 03:43:01;;;;;;;25.33;17.50;;;4.00;99.90;;;;;;5040032;28;20029;-39
2022/12/09 03:45:27;;;;;;;25.58;17.67;;;4.00;99.90;;;;;;5039421;28;20024;-39
2022/12/09 03:47:53;;;;;;;24.38;17.08;;;4.00;99.90;;;;;;5040526;28;20083;-38
2022/12/09 03:50:22;;;;;;;26.02;17.67;;;3.90;99.90;;;;;;5039873;28;20029;-36
2022/12/09 03:53:00;;;;;;;29.73;18.10;;;3.90;99.90;;;;;;5040044;28;20040;-37
2022/12/09 03:55:34;;;;;;;25.80;18.38;;;3.90;99.90;;;;;;5040323;28;20579;-38
2022/12/09 03:58:02;;;;;;;25.75;17.83;;;4.00;99.90;;;;;;5040475;28;20502;-39
2022/12/09 04:00:29;;;;;;;28.17;18.80;;;3.90;99.90;;;;;;5039652;28;20679;-40
2022/12/09 04:02:54;;;;;;;25.83;17.65;;;3.90;99.90;;;;;;5039131;28;20021;-39
2022/12/09 04:05:20;;;;;;;26.92;18.50;;;3.90;99.90;;;;;;5040190;28;20021;-40
2022/12/09 04:07:46;;;;;;;25.65;17.75;;;3.90;99.90;;;;;;5039162;28;20024;-39
2022/12/09 04:10:11;;;;;;;28.08;18.00;;;3.90;99.90;;;;;;5039557;28;20067;-39
2022/12/09 04:12:38;;;;;;;24.98;16.63;;;3.80;99.90;;;;;;5039354;28;20362;-39
2022/12/09 04:15:05;;;;;;;28.83;17.88;;;3.80;99.90;;;;;;5039751;28;20040;-38
2022/12/09 04:17:30;;;;;;;26.15;17.27;;;3.80;99.90;;;;;;5039722;28;20830;-38
2022/12/09 04:19:56;;;;;;;24.55;17.33;;;3.70;99.90;;;;;;5039460;28;20148;-40
2022/12/09 04:22:22;;;;;;;26.02;17.13;;;3.60;99.90;;;;;;5039517;28;20112;-39
2022/12/09 04:24:47;;;;;;;26.15;17.15;;;3.60;99.90;;;;;;5039344;28;20086;-39
2022/12/09 04:27:13;;;;;;;23.13;15.82;;;3.50;99.90;;;;;;5039291;28;20030;-40
2022/12/09 04:29:38;;;;;;;22.30;15.68;;;3.50;99.90;;;;;;5039154;28;20111;-40
2022/12/09 04:32:04;;;;;;;24.20;16.25;;;3.50;99.90;;;;;;5039782;28;20037;-40
2022/12/09 04:34:31;;;;;;;22.45;15.82;;;3.40;99.90;;;;;;5039787;28;20037;-39
2022/12/09 04:36:57;;;;;;;23.05;15.85;;;3.30;99.90;;;;;;5039252;28;20021;-39
2022/12/09 04:39:23;;;;;;;22.00;15.10;;;3.30;99.90;;;;;;5039092;28;20057;-38
2022/12/09 04:41:48;;;;;;;22.02;15.48;;;3.30;99.90;;;;;;5038806;28;20025;-37
2022/12/09 04:44:14;;;;;;;23.38;15.35;;;3.20;99.90;;;;;;5039777;28;20029;-40
2022/12/09 04:46:39;;;;;;;24.75;16.15;;;3.20;99.90;;;;;;5040712;28;20481;-39
2022/12/09 04:49:05;;;;;;;22.38;14.60;;;3.20;99.90;;;;;;5041908;28;20057;-37
2022/12/09 04:51:30;;;;;;;21.75;15.07;;;3.10;99.90;;;;;;5033580;28;20053;-39
2022/12/09 04:53:56;;;;;;;22.08;15.50;;;3.10;99.90;;;;;;5039916;28;20061;-39
2022/12/09 04:56:22;;;;;;;22.98;14.43;;;3.10;99.90;;;;;;5043180;28;20032;-36
2022/12/09 04:58:49;;;;;;;22.48;15.20;;;3.10;99.90;;;;;;5043628;28;20039;-38
2022/12/09 05:01:16;;;;;;;21.40;14.95;;;3.10;99.90;;;;;;5043322;28;20032;-39
2022/12/09 05:03:42;;;;;;;23.15;16.23;;;3.10;99.90;;;;;;5042405;28;20040;-39
2022/12/09 05:06:11;;;;;;;24.83;15.52;;;3.20;99.90;;;;;;5043133;28;20017;-39
2022/12/09 05:08:37;;;;;;;23.48;15.55;;;3.20;99.90;;;;;;5042960;28;20025;-38
2022/12/09 05:11:03;;;;;;;24.17;16.30;;;3.20;99.90;;;;;;5042882;28;20032;-38
2022/12/09 05:13:29;;;;;;;23.73;15.93;;;3.30;99.90;;;;;;5043506;28;20137;-38
2022/12/09 05:16:00;;;;;;;24.33;16.45;;;3.30;99.90;;;;;;5043886;28;20132;-38
2022/12/09 05:18:26;;;;;;;21.90;14.30;;;3.40;99.90;;;;;;5042001;28;20029;-39
2022/12/09 05:20:51;;;;;;;24.17;15.73;;;3.40;99.90;;;;;;5042368;28;20075;-37
2022/12/09 05:23:17;;;;;;;22.98;15.55;;;3.50;99.90;;;;;;5042585;28;20029;-41
2022/12/09 05:25:42;;;;;;;22.80;15.27;;;3.50;99.90;;;;;;5041979;28;20036;-39
2022/12/09 05:28:08;;;;;;;21.50;14.73;;;3.50;99.90;;;;;;5042301;28;20029;-37
2022/12/09 05:30:35;;;;;;;24.33;15.30;;;3.50;99.90;;;;;;5042169;28;20107;-39
2022/12/09 05:33:00;;;;;;;19.90;13.93;;;3.50;99.90;;;;;;5042028;28;20029;-39
2022/12/09 05:35:26;;;;;;;22.63;14.82;;;3.60;99.90;;;;;;5042443;28;20029;-40
2022/12/09 05:37:51;;;;;;;21.38;14.75;;;3.60;99.90;;;;;;5041559;28;20049;-38
2022/12/09 05:40:17;;;;;;;23.08;14.43;;;3.60;99.90;;;;;;5042858;28;20025;-39
2022/12/09 05:42:42;;;;;;;22.63;15.30;;;3.60;99.90;;;;;;5042750;28;20079;-39
2022/12/09 05:45:09;;;;;;;21.52;14.95;;;3.70;99.90;;;;;;5041849;28;20029;-40
2022/12/09 05:47:35;;;;;;;23.92;14.50;;;3.60;99.90;;;;;;5042848;28;20032;-38
2022/12/09 05:50:02;;;;;;;22.15;15.55;;;3.60;99.90;;;;;;5042288;28;20028;-39
2022/12/09 05:52:28;;;;;;;24.25;14.73;;;3.70;99.90;;;;;;5041915;28;20845;-39
2022/12/09 05:54:54;;;;;;;21.80;15.00;;;3.70;99.90;;;;;;5042006;28;20048;-38
2022/12/09 05:57:19;;;;;;;24.13;15.73;;;3.70;99.90;;;;;;5041901;28;20052;-39
2022/12/09 05:59:45;;;;;;;24.23;15.63;;;3.70;99.90;;;;;;5040535;28;20075;-37
2022/12/09 06:02:10;;;;;;;25.52;16.52;;;3.70;99.90;;;;;;5042443;28;20781;-40
2022/12/09 06:04:36;;;;;;;23.52;16.27;;;3.70;99.90;;;;;;5042647;28;20029;-36
2022/12/09 06:07:02;;;;;;;23.45;16.05;;;3.70;99.90;;;;;;5041499;28;20021;-38
2022/12/09 06:09:27;;;;;;;24.42;15.93;;;3.70;99.90;;;;;;5042271;28;20029;-38
2022/12/09 06:11:53;;;;;;;22.58;15.05;;;3.70;99.90;;;;;;5041320;28;20020;-40
2022/12/09 06:14:18;;;;;;;23.20;15.73;;;3.70;99.90;;;;;;5041582;28;20377;-38
2022/12/09 06:16:44;;;;;;;22.85;15.32;;;3.70;99.90;;;;;;5041951;28;20380;-39
2022/12/09 06:19:11;;;;;;;23.27;14.65;;;3.60;99.90;;;;;;5042012;28;20446;-38
2022/12/09 06:21:39;;;;;;;20.90;14.93;;;3.50;99.90;;;;;;5040887;28;20021;-39
2022/12/09 06:24:05;;;;;;;24.23;15.73;;;3.40;99.90;;;;;;5042511;28;20029;-38
2022/12/09 06:26:31;;;;;;;24.55;15.60;;;3.30;99.90;;;;;;5041578;28;20563;-37
2022/12/09 06:28:58;;;;;;;21.55;14.65;;;3.20;99.90;;;;;;5041141;28;20033;-40
2022/12/09 06:31:24;;;;;;;22.75;15.07;;;3.10;99.90;;;;;;5042306;28;20401;-39
2022/12/09 06:33:50;;;;;;;22.63;15.60;;;3.10;99.90;;;;;;5041393;28;20527;-37
2022/12/09 06:36:15;;;;;;;21.63;14.68;;;3.00;99.90;;;;;;5041035;28;20025;-40
2022/12/09 06:38:41;;;;;;;20.55;14.57;;;2.90;99.90;;;;;;5041095;28;20049;-39
2022/12/09 06:41:08;;;;;;;24.65;16.15;;;2.80;99.90;;;;;;5040316;28;20060;-40
2022/12/09 06:43:34;;;;;;;24.52;16.38;;;2.80;99.90;;;;;;5041206;28;20024;-37
2022/12/09 06:46:00;;;;;;;22.50;14.70;;;2.80;99.90;;;;;;5041193;28;20028;-40
2022/12/09 06:48:25;;;;;;;22.25;14.80;;;2.70;99.90;;;;;;5040931;28;20886;-40
2022/12/09 06:50:51;;;;;;;21.15;13.95;;;2.60;99.90;;;;;;5041344;28;20031;-38
2022/12/09 06:53:17;;;;;;;21.55;14.63;;;2.60;99.90;;;;;;5040950;28;20116;-41
2022/12/09 06:55:43;;;;;;;20.25;14.30;;;2.50;99.90;;;;;;5040503;28;20060;-40
2022/12/09 06:58:09;;;;;;;21.20;12.70;;;2.50;99.90;;;;;;5040863;28;20045;-40
2022/12/09 07:00:35;;;;;;;19.35;13.35;;;2.40;99.90;;;;;;5040982;28;20086;-39
2022/12/09 07:03:01;;;;;;;20.85;13.18;;;2.40;99.90;;;;;;5040282;28;20142;-40
2022/12/09 07:05:26;;;;;;;22.83;14.82;;;2.40;99.90;;;;;;5041491;28;20029;-38
2022/12/09 07:07:52;;;;;;;23.98;15.07;;;2.30;99.90;;;;;;5040557;28;20196;-39
2022/12/09 07:10:19;;;;;;;22.48;15.00;;;2.30;99.90;;;;;;5039142;28;20445;-40
2022/12/09 07:12:44;;;;;;;21.23;14.48;;;2.30;99.90;;;;;;5041041;28;20064;-40
2022/12/09 07:15:11;;;;;;;22.98;14.50;;;2.20;99.90;;;;;;5051052;28;20197;-40
2022/12/09 07:17:37;;;;;;;21.85;14.48;;;2.20;99.90;;;;;;5053051;28;20029;-40
2022/12/09 07:20:03;;;;;;;23.70;14.05;;;2.20;99.90;;;;;;5040739;28;20432;-38
2022/12/09 07:22:28;;;;;;;19.27;13.55;;;2.20;99.90;;;;;;5040730;28;20025;-40
2022/12/09 07:24:54;;;;;;;22.05;14.75;;;2.10;99.90;;;;;;5037626;28;20040;-41
2022/12/09 07:27:19;;;;;;;22.30;14.23;;;2.10;99.90;;;;;;5039786;28;20033;-42
2022/12/09 07:29:45;;;;;;;20.23;13.48;;;2.10;99.90;;;;;;5039408;28;20095;-40
2022/12/09 07:32:18;;;;;;;23.10;14.75;;;2.00;99.90;;;;;;5056062;28;20427;-39
2022/12/09 07:34:44;;;;;;;22.50;13.98;;;2.00;99.90;;;;;;5056021;28;20806;-38
2022/12/09 07:37:10;;;;;;;23.10;14.70;;;2.00;99.90;;;;;;5056604;28;20035;-37
2022/12/09 07:39:35;;;;;;;24.42;14.73;;;2.00;99.90;;;;;;5055508;28;20025;-38
2022/12/09 07:42:01;;;;;;;22.52;14.40;;;2.00;99.90;;;;;;5056833;28;20047;-36
2022/12/09 07:44:29;;;;;;;23.63;14.50;;;2.00;99.90;;;;;;5055825;28;20135;-38
2022/12/09 07:46:55;;;;;;;23.70;15.45;;;2.00;99.90;;;;;;5056179;28;20103;-39
2022/12/09 07:49:21;;;;;;;22.55;14.88;;;1.90;99.90;;;;;;5056347;28;20043;-36
2022/12/09 07:51:47;;;;;;;23.08;15.68;;;1.90;99.90;;;;;;5055499;28;20037;-38
2022/12/09 07:54:15;;;;;;;22.73;14.88;;;1.90;99.90;;;;;;5056237;28;20025;-38
2022/12/09 07:56:41;;;;;;;24.85;15.20;;;1.90;99.90;;;;;;5055087;28;20075;-37
2022/12/09 07:59:08;;;;;;;24.33;15.23;;;1.90;99.90;;;;;;5053423;28;20031;-38
2022/12/09 08:01:34;;;;;;;24.38;14.88;;;1.90;99.90;;;;;;5055860;28;20664;-39
2022/12/09 08:04:01;;;;;;;24.15;16.25;;;1.90;99.90;;;;;;5056209;28;20037;-38
2022/12/09 08:06:28;;;;;;;22.83;15.32;;;1.90;99.90;;;;;;5056250;28;20025;-39
2022/12/09 08:08:58;;;;;;;26.10;17.77;;;1.90;99.90;;;;;;5055981;28;20061;-33
2022/12/09 08:11:25;;;;;;;23.75;15.65;;;2.00;99.90;;;;;;5056283;28;20058;-38
2022/12/09 08:13:51;;;;;;;24.20;15.88;;;2.00;99.90;;;;;;5055566;28;20101;-39
2022/12/09 08:16:19;;;;;;;25.30;15.93;;;2.10;99.90;;;;;;5052491;28;20033;-39
2022/12/09 08:18:45;;;;;;;25.40;16.42;;;2.20;99.90;;;;;;5056061;28;20028;-39
2022/12/09 08:21:18;;;;;;;24.92;16.40;;;2.20;99.90;;;;;;5055087;28;20809;-40
2022/12/09 08:23:44;;;;;;;25.05;15.80;;;2.30;99.90;;;;;;5056571;28;20367;-40
2022/12/09 08:26:12;;;;;;;26.08;16.35;;;2.40;99.90;;;;;;5055492;28;20028;-36
2022/12/09 08:28:38;;;;;;;25.38;15.00;;;2.50;99.90;;;;;;5055339;28;20021;-40
2022/12/09 08:31:15;;;;;;;25.85;16.23;;;2.50;99.90;;;;;;5055180;28;20754;-39
2022/12/09 08:33:41;;;;;;;23.27;14.48;;;2.60;99.90;;;;;;5035626;28;20034;-39
2022/12/09 08:36:20;;;;;;;23.27;14.73;;;2.70;99.90;;;;;;5050109;28;20413;-39
2022/12/09 08:38:46;;;;;;;23.08;14.32;;;2.70;99.90;;;;;;5055698;28;20036;-39
2022/12/09 08:41:15;;;;;;;25.75;15.93;;;2.80;99.90;;;;;;5055066;28;20028;-39
2022/12/09 08:43:42;;;;;;;25.65;16.40;;;2.80;99.90;;;;;;5042562;28;20041;-39
2022/12/09 08:46:08;;;;;;;24.58;15.90;;;2.80;99.90;;;;;;5042289;28;20495;-39
2022/12/09 08:48:38;;;;;;;24.65;16.10;;;2.90;99.90;;;;;;5041441;28;20164;-39
2022/12/09 08:51:05;;;;;;;25.02;15.98;;;2.90;99.90;;;;;;5041656;28;20024;-38
2022/12/09 08:53:31;;;;;;;26.08;16.80;;;3.00;99.90;;;;;;5042533;28;20064;-38
2022/12/09 08:55:56;;;;;;;27.02;17.48;;;3.00;99.90;;;;;;5041355;28;20935;-39
2022/12/09 08:58:22;;;;;;;25.58;16.52;;;3.00;99.90;;;;;;5041741;28;20020;-39
2022/12/09 09:00:48;;;;;;;25.75;16.80;;;3.10;99.90;;;;;;5041310;28;20017;-36
2022/12/09 09:03:13;;;;;;;24.75;15.50;;;3.10;99.90;;;;;;5041468;28;20676;-38
2022/12/09 09:05:39;;;;;;;28.50;16.23;;;3.10;99.90;;;;;;5041373;28;20060;-38
2022/12/09 09:08:04;;;;;;;25.67;16.02;;;3.10;99.90;;;;;;5041670;28;20112;-41
2022/12/09 09:10:30;;;;;;;27.02;17.05;;;3.20;99.90;;;;;;5041452;28;20037;-39
2022/12/09 09:12:55;;;;;;;29.67;16.88;;;3.20;99.90;;;;;;5041497;28;20488;-40
2022/12/09 09:15:21;;;;;;;28.83;16.70;;;3.20;99.90;;;;;;5042488;28;20021;-41
2022/12/09 09:17:47;;;;;;;29.77;18.15;;;3.30;99.90;;;;;;5040548;28;20025;-39
2022/12/09 09:20:13;;;;;;;30.55;19.05;;;3.30;99.90;;;;;;5041487;28;20111;-39
2022/12/09 09:22:38;;;;;;;29.42;17.40;;;3.40;99.90;;;;;;5041256;28;20396;-38
2022/12/09 09:25:04;;;;;;;28.48;17.60;;;3.40;99.90;;;;;;5040909;28;20037;-40
2022/12/09 09:27:30;;;;;;;28.40;17.27;;;3.40;99.90;;;;;;5041438;28;20744;-39
2022/12/09 09:29:56;;;;;;;28.20;17.38;;;3.40;99.90;;;;;;5040385;28;20071;-38
2022/12/09 09:32:21;;;;;;;27.08;17.20;;;3.50;99.90;;;;;;5041148;28;20460;-40
2022/12/09 09:34:51;;;;;;;28.88;16.83;;;3.50;99.90;;;;;;5041822;28;20060;-40
2022/12/09 09:37:16;;;;;;;26.48;16.58;;;3.50;99.90;;;;;;5040917;28;20068;-40
2022/12/09 09:39:42;;;;;;;27.80;16.63;;;3.50;99.90;;;;;;5041712;28;20120;-38
2022/12/09 09:42:15;;;;;;;26.08;15.82;;;3.50;99.90;;;;;;5040963;28;20037;-39
2022/12/09 09:44:46;;;;;;;26.67;16.38;;;3.50;99.90;;;;;;5029147;28;20044;-38
2022/12/09 09:47:40;;;;;;;25.13;15.45;;;3.60;99.90;;;;;;5040757;28;20025;-35
2022/12/09 09:50:12;;;;;;;20.77;12.90;;;3.60;99.90;;;;;;5031753;28;20029;-40
2022/12/09 09:52:41;;;;;;;22.38;13.43;;;3.60;99.90;;;;;;5040654;28;20044;-39
2022/12/09 09:55:15;;;;;;;21.30;13.38;;;3.70;99.90;;;;;;5040041;28;20624;-37
2022/12/09 09:58:17;;;;;;;23.83;14.13;;;3.60;99.90;;;;;;5038767;28;20032;-39
2022/12/09 10:01:02;;;;;;;20.85;13.52;;;3.70;99.90;;;;;;5034096;28;20033;-39
2022/12/09 10:03:51;;;;;;;21.67;13.68;;;3.60;99.90;;;;;;5040502;28;20025;-39
2022/12/09 10:06:45;;;;;;;23.83;14.30;;;3.70;99.90;;;;;;5039807;28;20025;-37
2022/12/09 10:09:31;;;;;;;21.80;13.60;;;3.70;99.90;;;;;;5040729;28;20029;-40
2022/12/09 10:12:06;;;;;;;22.90;13.88;;;3.70;99.90;;;;;;5040685;28;20041;-38
2022/12/09 10:14:57;;;;;;;21.05;13.18;;;3.80;99.90;;;;;;5040727;28;20029;-40
2022/12/09 10:17:32;;;;;;;19.30;12.45;;;3.80;99.90;;;;;;5020681;28;20068;-39
2022/12/09 10:20:24;;;;;;;18.55;12.15;;;3.90;99.90;;;;;;5037428;28;20589;-35
2022/12/09 10:23:10;;;;;;;17.77;11.80;;;3.80;99.90;;;;;;5040743;28;20457;-39
2022/12/09 10:25:41;;;;;;;20.88;12.52;;;3.90;99.90;;;;;;5040051;28;20503;-39
2022/12/09 10:28:25;;;;;;;18.40;12.20;;;3.90;99.90;;;;;;5040164;28;20063;-38
2022/12/09 10:30:53;;;;;;;20.38;12.05;;;4.00;99.90;;;;;;5040055;28;20500;-38
2022/12/09 10:33:32;;;;;;;19.13;12.10;;;4.00;99.90;;;;;;5040131;28;20112;-38
2022/12/09 10:35:58;;;;;;;18.60;12.38;;;4.10;99.90;;;;;;5037268;28;20025;-38
2022/12/09 10:38:25;;;;;;;17.52;11.75;;;4.10;99.90;;;;;;5040469;28;20810;-39
2022/12/09 10:43:33;;;;;;;19.95;12.35;;;4.20;99.90;;;;;;5039797;28;20035;-39
2022/12/09 10:44:21;;;;;;;20.77;12.00;;;4.20;99.90;;;;;;5040640;28;20605;-39
2022/12/09 10:46:54;;;;;;;20.02;12.65;;;4.20;99.90;;;;;;5030311;28;20033;-40
2022/12/09 10:49:20;;;;;;;;;;;4.20;99.90;;;;;;5040469;28;20032;-39
2022/12/09 10:51:48;;;;;;;16.67;10.60;;;4.20;99.90;;;;;;5039345;28;19916;-38
2022/12/09 10:54:19;;;;;;;18.90;11.95;;;4.10;99.90;;;;;;5040099;28;20057;-38
2022/12/09 10:57:22;;;;;;;18.30;12.20;;;4.10;99.90;;;;;;5039971;28;20029;-39
2022/12/09 11:00:01;;;;;;;19.27;12.13;;;4.20;99.90;;;;;;5040120;28;20401;-40
2022/12/09 11:02:28;;;;;;;19.50;11.80;;;4.20;99.90;;;;;;5030060;28;20583;-40
2022/12/09 11:04:55;;;;;;;21.85;11.93;;;4.20;99.90;;;;;;5040260;28;20160;-37
2022/12/09 11:07:24;;;;;;;19.25;12.23;;;4.20;99.90;;;;;;5040505;28;20032;-40
2022/12/09 11:10:21;;;;;;;20.38;12.02;;;4.20;99.90;;;;;;5039454;28;20384;-39
2022/12/09 11:12:50;;;;;;;19.83;12.20;;;4.20;99.90;;;;;;5037365;28;20052;-37
2022/12/09 11:15:31;;;;;;;20.90;12.40;;;4.10;99.90;;;;;;5039380;28;20933;-39
2022/12/09 11:18:01;;;;;;;19.63;12.48;;;4.10;99.90;;;;;;5029341;28;20032;-38
2022/12/09 11:20:31;;;;;;;20.65;13.05;;;4.00;99.90;;;;;;5039259;28;20036;-39
2022/12/09 11:23:14;;;;;;;18.08;11.43;;;4.00;99.90;;;;;;5028148;28;20021;-40
2022/12/09 11:25:51;;;;;;;16.98;11.30;;;4.00;99.90;;;;;;5039332;28;20051;-38
2022/12/09 11:28:17;;;;;;;20.65;12.30;;;4.10;99.90;;;;;;5029011;28;20112;-33
2022/12/09 11:31:12;;;;;;;18.38;11.93;;;4.10;99.90;;;;;;5038436;28;20045;-35
2022/12/09 11:33:46;;;;;;;19.73;11.10;;;4.20;99.90;;;;;;5030592;28;20488;-39
2022/12/09 11:36:26;;;;;;;19.00;11.85;;;4.20;99.90;;;;;;5039821;28;20120;-39
2022/12/09 11:39:05;;;;;;;19.33;11.57;;;4.20;99.90;;;;;;5038130;28;20506;-38
2022/12/09 11:44:21;;;;;;;18.77;11.88;;;4.20;99.90;;;;;;5038963;28;20116;-38
2022/12/09 11:47:00;;;;;;;16.08;10.73;;;4.30;99.90;;;;;;5039048;28;20035;-40
2022/12/09 11:49:30;;;;;;;19.70;11.98;;;4.30;99.90;;;;;;5039587;28;20025;-39
2022/12/09 11:52:19;;;;;;;18.30;11.48;;;4.40;99.90;;;;;;5037065;28;20029;-40
2022/12/09 11:54:56;;;;;;;21.63;12.30;;;4.40;99.90;;;;;;5040155;28;20057;-40
2022/12/09 11:57:27;;;;;;;17.88;11.70;;;4.40;99.90;;;;;;5039486;28;20028;-39
2022/12/09 11:59:58;;;;;;;21.08;12.43;;;4.50;99.90;;;;;;5038846;28;20037;-38
2022/12/09 12:02:32;;;;;;;20.02;13.00;;;4.50;99.90;;;;;;5040079;28;20021;-39
2022/12/09 12:05:42;;;;;;;21.90;13.02;;;4.50;99.90;;;;;;5038159;28;20025;-40
2022/12/09 12:08:36;;;;;;;19.85;12.23;;;4.50;99.90;;;;;;5037369;28;20044;-39
2022/12/09 12:11:11;;;;;;;18.73;11.57;;;4.50;99.90;;;;;;5019357;28;20068;-40
2022/12/09 12:13:42;;;;;;;16.27;11.02;;;4.50;99.90;;;;;;5034800;28;20032;-40
2022/12/09 12:16:26;;;;;;;19.17;12.65;;;4.50;99.90;;;;;;5038956;28;20496;-35
2022/12/09 12:18:57;;;;;;;19.45;12.23;;;4.50;99.90;;;;;;5041613;28;20028;-36
2022/12/09 12:21:47;;;;;;;21.52;13.00;;;4.50;99.90;;;;;;5042747;28;20472;-39
2022/12/09 12:24:40;;;;;;;18.17;11.88;;;4.50;99.90;;;;;;5042158;28;20025;-37
2022/12/09 12:27:25;;;;;;;20.60;12.88;;;4.60;99.90;;;;;;5042302;28;20025;-39
2022/12/09 12:30:05;;;;;;;19.83;11.25;;;4.50;99.90;;;;;;5039498;28;20748;-37
2022/12/09 12:32:55;;;;;;;17.75;11.13;;;4.60;99.90;;;;;;5043008;28;20044;-37
2022/12/09 12:35:40;;;;;;;17.15;12.02;;;4.60;99.90;;;;;;5042884;28;20033;-38
2022/12/09 12:38:29;;;;;;;19.08;11.20;;;4.60;99.90;;;;;;5042589;28;20099;-39
2022/12/09 12:41:09;;;;;;;17.38;11.10;;;4.60;99.90;;;;;;5033850;28;20082;-38
2022/12/09 12:46:40;;;;;;;17.52;10.98;;;4.60;99.90;;;;;;5042438;28;20044;-39
2022/12/09 12:49:27;;;;;;;19.05;11.77;;;4.60;99.90;;;;;;5041924;28;20033;-37
2022/12/09 12:52:14;;;;;;;19.88;11.40;;;4.60;99.90;;;;;;5042570;28;20132;-39
2022/12/09 12:55:01;;;;;;;17.48;11.25;;;4.60;99.90;;;;;;5041597;28;20044;-37
2022/12/09 12:58:04;;;;;;;19.05;11.63;;;4.60;99.90;;;;;;5022297;28;20045;-37
2022/12/09 13:00:50;;;;;;;17.23;10.93;;;4.60;99.90;;;;;;5041849;28;20138;-38
2022/12/09 13:03:26;;;;;;;17.55;11.63;;;4.60;99.90;;;;;;5040788;28;20036;-39